SCIR

Details ICAO SCIR
Name Isla Robinson Crusoe
Region Chile
Timezone Unknown (UTC+0.0)
Plans Departing 9
Arriving 16
Stats Elevation 433 ft / 132 m (AMSL)
Location -33.665001° -78.929703°
Runways 1
Magnetic Variation 8.813° E
Sunrise 2018-05-22 12:06:50 UTC / 2018-05-22 12:06:50 Local
Sunset 2018-05-22 22:20:49 UTC / 2018-05-22 22:20:49 Local
Advertisement - Login to hide

Runways

ID Width Length Bearing (true) Bearing (mag) Surface Threshold Offset Overrun Length
14 59 ft / 18 m 2,825 ft / 861 m 140.00° 131.19° Concrete 0 ft / 0 m 0 ft / 0 m
32 59 ft / 18 m 2,825 ft / 861 m 320.00° 311.19° Concrete 0 ft / 0 m 0 ft / 0 m

Map

Weather


0- 5 10 15 20 25 30 35+ Temperature / ° C

Clouds and Precipitation
Forecast for 2018-05-22 18:00 UTC. Updated 14 minutes ago

Ground ~20,000 ft ~40,000 ft Winds

METAR

SCIR 221700Z 23009KT 9999 BKN030 13/08 Q1024

TAF

Not found
Warning: Do not use this data for real-world aviation or navigation. No guarantee of current accuracy is given.